sensor_id;sensor_type;location;lat;lon;timestamp;P1;durP1;ratioP1;P2;durP2;ratioP2
61471;SDS011;47337;54.068;12.114;2023-07-29T00:01:31;6.72;;;5.50;;
61471;SDS011;47337;54.068;12.114;2023-07-29T00:03:56;6.47;;;5.72;;
61471;SDS011;47337;54.068;12.114;2023-07-29T00:06:25;6.93;;;5.30;;
61471;SDS011;47337;54.068;12.114;2023-07-29T00:08:53;6.35;;;5.50;;
61471;SDS011;47337;54.068;12.114;2023-07-29T00:11:18;10.10;;;6.28;;
61471;SDS011;47337;54.068;12.114;2023-07-29T00:13:46;6.57;;;5.25;;
61471;SDS011;47337;54.068;12.114;2023-07-29T00:16:12;6.53;;;5.70;;
61471;SDS011;47337;54.068;12.114;2023-07-29T00:18:40;5.72;;;5.00;;
61471;SDS011;47337;54.068;12.114;2023-07-29T00:21:06;7.70;;;5.03;;
61471;SDS011;47337;54.068;12.114;2023-07-29T00:23:31;6.25;;;5.13;;
61471;SDS011;47337;54.068;12.114;2023-07-29T00:25:56;5.78;;;5.18;;
61471;SDS011;47337;54.068;12.114;2023-07-29T00:28:22;6.88;;;5.18;;
61471;SDS011;47337;54.068;12.114;2023-07-29T00:30:47;6.18;;;5.57;;
61471;SDS011;47337;54.068;12.114;2023-07-29T00:33:12;8.05;;;6.05;;
61471;SDS011;47337;54.068;12.114;2023-07-29T00:35:40;8.43;;;6.28;;
61471;SDS011;47337;54.068;12.114;2023-07-29T00:38:08;6.22;;;5.30;;
61471;SDS011;47337;54.068;12.114;2023-07-29T00:40:35;13.13;;;5.97;;
61471;SDS011;47337;54.068;12.114;2023-07-29T00:43:03;6.88;;;5.88;;
61471;SDS011;47337;54.068;12.114;2023-07-29T00:45:29;8.15;;;5.90;;
61471;SDS011;47337;54.068;12.114;2023-07-29T00:47:55;6.68;;;5.25;;
61471;SDS011;47337;54.068;12.114;2023-07-29T00:50:21;8.07;;;5.72;;
61471;SDS011;47337;54.068;12.114;2023-07-29T00:52:47;6.35;;;5.18;;
61471;SDS011;47337;54.068;12.114;2023-07-29T00:55:14;6.18;;;5.15;;
61471;SDS011;47337;54.068;12.114;2023-07-29T00:57:42;6.90;;;5.40;;
61471;SDS011;47337;54.068;12.114;2023-07-29T01:00:10;6.35;;;4.90;;
61471;SDS011;47337;54.068;12.114;2023-07-29T01:02:35;6.65;;;5.35;;
61471;SDS011;47337;54.068;12.114;2023-07-29T01:05:01;7.68;;;5.25;;
61471;SDS011;47337;54.068;12.114;2023-07-29T01:07:30;7.15;;;5.47;;
61471;SDS011;47337;54.068;12.114;2023-07-29T01:10:21;6.82;;;5.72;;
61471;SDS011;47337;54.068;12.114;2023-07-29T01:16:01;6.53;;;5.45;;
61471;SDS011;47337;54.068;12.114;2023-07-29T01:18:34;8.43;;;5.85;;
61471;SDS011;47337;54.068;12.114;2023-07-29T01:21:04;7.57;;;5.88;;
61471;SDS011;47337;54.068;12.114;2023-07-29T01:23:33;6.38;;;5.43;;
61471;SDS011;47337;54.068;12.114;2023-07-29T01:25:59;7.50;;;5.28;;
61471;SDS011;47337;54.068;12.114;2023-07-29T01:28:30;6.00;;;5.10;;
61471;SDS011;47337;54.068;12.114;2023-07-29T01:31:07;8.93;;;5.38;;
61471;SDS011;47337;54.068;12.114;2023-07-29T01:33:38;6.80;;;5.50;;
61471;SDS011;47337;54.068;12.114;2023-07-29T01:36:20;7.32;;;5.00;;
61471;SDS011;47337;54.068;12.114;2023-07-29T01:38:52;7.70;;;5.93;;
61471;SDS011;47337;54.068;12.114;2023-07-29T01:41:22;7.88;;;5.72;;
61471;SDS011;47337;54.068;12.114;2023-07-29T01:43:52;6.77;;;5.80;;
61471;SDS011;47337;54.068;12.114;2023-07-29T01:46:19;7.13;;;5.20;;
61471;SDS011;47337;54.068;12.114;2023-07-29T01:48:45;8.50;;;5.72;;
61471;SDS011;47337;54.068;12.114;2023-07-29T01:51:11;8.77;;;5.93;;
61471;SDS011;47337;54.068;12.114;2023-07-29T01:53:37;7.35;;;5.88;;
61471;SDS011;47337;54.068;12.114;2023-07-29T01:56:02;7.35;;;5.82;;
61471;SDS011;47337;54.068;12.114;2023-07-29T01:58:28;5.70;;;4.90;;
61471;SDS011;47337;54.068;12.114;2023-07-29T02:00:53;6.07;;;4.95;;
61471;SDS011;47337;54.068;12.114;2023-07-29T02:03:19;6.68;;;5.03;;
61471;SDS011;47337;54.068;12.114;2023-07-29T02:05:44;10.82;;;5.75;;
61471;SDS011;47337;54.068;12.114;2023-07-29T02:08:10;9.10;;;5.90;;
61471;SDS011;47337;54.068;12.114;2023-07-29T02:10:36;6.97;;;5.85;;
61471;SDS011;47337;54.068;12.114;2023-07-29T02:13:04;7.68;;;5.72;;
61471;SDS011;47337;54.068;12.114;2023-07-29T02:15:30;8.02;;;6.68;;
61471;SDS011;47337;54.068;12.114;2023-07-29T02:17:55;8.10;;;6.22;;
61471;SDS011;47337;54.068;12.114;2023-07-29T02:20:24;9.30;;;6.28;;
61471;SDS011;47337;54.068;12.114;2023-07-29T02:22:49;7.10;;;5.93;;
61471;SDS011;47337;54.068;12.114;2023-07-29T02:25:15;6.35;;;5.75;;
61471;SDS011;47337;54.068;12.114;2023-07-29T02:27:42;7.28;;;6.03;;
61471;SDS011;47337;54.068;12.114;2023-07-29T02:30:08;9.63;;;6.13;;
61471;SDS011;47337;54.068;12.114;2023-07-29T02:32:34;7.57;;;6.00;;
61471;SDS011;47337;54.068;12.114;2023-07-29T02:35:00;7.95;;;6.30;;
61471;SDS011;47337;54.068;12.114;2023-07-29T02:37:25;8.52;;;7.05;;
61471;SDS011;47337;54.068;12.114;2023-07-29T02:39:53;11.23;;;7.40;;
61471;SDS011;47337;54.068;12.114;2023-07-29T02:42:18;10.35;;;7.10;;
61471;SDS011;47337;54.068;12.114;2023-07-29T02:44:44;8.75;;;7.07;;
61471;SDS011;47337;54.068;12.114;2023-07-29T02:47:11;7.85;;;6.60;;
61471;SDS011;47337;54.068;12.114;2023-07-29T02:49:37;9.75;;;6.65;;
61471;SDS011;47337;54.068;12.114;2023-07-29T02:52:02;7.43;;;6.45;;
61471;SDS011;47337;54.068;12.114;2023-07-29T02:54:30;7.20;;;6.50;;
61471;SDS011;47337;54.068;12.114;2023-07-29T02:56:56;9.40;;;6.85;;
61471;SDS011;47337;54.068;12.114;2023-07-29T02:59:21;7.57;;;6.35;;
61471;SDS011;47337;54.068;12.114;2023-07-29T03:01:46;8.23;;;6.57;;
61471;SDS011;47337;54.068;12.114;2023-07-29T03:04:15;7.22;;;6.38;;
61471;SDS011;47337;54.068;12.114;2023-07-29T03:06:40;7.93;;;6.68;;
61471;SDS011;47337;54.068;12.114;2023-07-29T03:09:06;7.53;;;6.38;;
61471;SDS011;47337;54.068;12.114;2023-07-29T03:11:31;9.02;;;6.97;;
61471;SDS011;47337;54.068;12.114;2023-07-29T03:13:56;9.65;;;7.25;;
61471;SDS011;47337;54.068;12.114;2023-07-29T03:16:22;9.10;;;6.93;;
61471;SDS011;47337;54.068;12.114;2023-07-29T03:18:48;8.98;;;7.05;;
61471;SDS011;47337;54.068;12.114;2023-07-29T03:21:14;9.15;;;7.45;;
61471;SDS011;47337;54.068;12.114;2023-07-29T03:23:39;8.68;;;7.85;;
61471;SDS011;47337;54.068;12.114;2023-07-29T03:26:05;7.88;;;6.75;;
61471;SDS011;47337;54.068;12.114;2023-07-29T03:28:37;9.43;;;6.85;;
61471;SDS011;47337;54.068;12.114;2023-07-29T03:31:12;9.52;;;6.80;;
61471;SDS011;47337;54.068;12.114;2023-07-29T03:33:38;9.68;;;7.10;;
61471;SDS011;47337;54.068;12.114;2023-07-29T03:36:03;8.55;;;7.10;;
61471;SDS011;47337;54.068;12.114;2023-07-29T03:38:32;7.18;;;6.07;;
61471;SDS011;47337;54.068;12.114;2023-07-29T03:41:04;9.80;;;6.95;;
61471;SDS011;47337;54.068;12.114;2023-07-29T03:43:30;8.52;;;6.55;;
61471;SDS011;47337;54.068;12.114;2023-07-29T03:45:55;6.40;;;5.80;;
61471;SDS011;47337;54.068;12.114;2023-07-29T03:48:21;8.80;;;6.55;;
61471;SDS011;47337;54.068;12.114;2023-07-29T03:50:48;7.63;;;6.28;;
61471;SDS011;47337;54.068;12.114;2023-07-29T03:53:14;7.15;;;6.45;;
61471;SDS011;47337;54.068;12.114;2023-07-29T03:55:39;11.63;;;6.57;;
61471;SDS011;47337;54.068;12.114;2023-07-29T03:58:05;8.07;;;6.38;;
61471;SDS011;47337;54.068;12.114;2023-07-29T04:00:35;6.18;;;5.45;;
61471;SDS011;47337;54.068;12.114;2023-07-29T04:03:02;7.68;;;6.28;;
61471;SDS011;47337;54.068;12.114;2023-07-29T04:05:28;6.47;;;5.53;;
61471;SDS011;47337;54.068;12.114;2023-07-29T04:07:53;8.30;;;6.07;;
61471;SDS011;47337;54.068;12.114;2023-07-29T04:10:22;8.05;;;5.88;;
61471;SDS011;47337;54.068;12.114;2023-07-29T04:12:47;6.40;;;5.72;;
61471;SDS011;47337;54.068;12.114;2023-07-29T04:15:15;6.90;;;5.70;;
61471;SDS011;47337;54.068;12.114;2023-07-29T04:17:40;7.30;;;5.68;;
61471;SDS011;47337;54.068;12.114;2023-07-29T04:20:08;6.38;;;5.00;;
61471;SDS011;47337;54.068;12.114;2023-07-29T04:22:35;5.88;;;5.03;;
61471;SDS011;47337;54.068;12.114;2023-07-29T04:25:00;5.47;;;4.72;;
61471;SDS011;47337;54.068;12.114;2023-07-29T04:27:26;5.07;;;4.25;;
61471;SDS011;47337;54.068;12.114;2023-07-29T04:29:53;6.40;;;4.50;;
61471;SDS011;47337;54.068;12.114;2023-07-29T04:32:19;5.35;;;4.30;;
61471;SDS011;47337;54.068;12.114;2023-07-29T04:34:46;4.97;;;4.47;;
61471;SDS011;47337;54.068;12.114;2023-07-29T04:37:12;6.47;;;4.30;;
61471;SDS011;47337;54.068;12.114;2023-07-29T04:39:37;6.72;;;4.47;;
61471;SDS011;47337;54.068;12.114;2023-07-29T04:42:03;6.70;;;4.93;;
61471;SDS011;47337;54.068;12.114;2023-07-29T04:44:28;5.95;;;4.38;;
61471;SDS011;47337;54.068;12.114;2023-07-29T04:46:54;4.93;;;4.53;;
61471;SDS011;47337;54.068;12.114;2023-07-29T04:49:21;5.78;;;4.80;;
61471;SDS011;47337;54.068;12.114;2023-07-29T04:51:49;6.00;;;5.15;;
61471;SDS011;47337;54.068;12.114;2023-07-29T04:54:14;5.53;;;4.70;;
61471;SDS011;47337;54.068;12.114;2023-07-29T04:56:40;5.03;;;4.22;;
61471;SDS011;47337;54.068;12.114;2023-07-29T04:59:05;5.15;;;4.30;;
61471;SDS011;47337;54.068;12.114;2023-07-29T05:01:33;6.13;;;4.70;;
61471;SDS011;47337;54.068;12.114;2023-07-29T05:03:58;6.05;;;4.90;;
61471;SDS011;47337;54.068;12.114;2023-07-29T05:06:24;5.00;;;4.50;;
61471;SDS011;47337;54.068;12.114;2023-07-29T05:08:51;5.70;;;4.47;;
61471;SDS011;47337;54.068;12.114;2023-07-29T05:11:17;5.15;;;4.55;;
61471;SDS011;47337;54.068;12.114;2023-07-29T05:13:45;6.75;;;4.57;;
61471;SDS011;47337;54.068;12.114;2023-07-29T05:16:10;6.28;;;4.32;;
61471;SDS011;47337;54.068;12.114;2023-07-29T05:18:35;5.70;;;5.10;;
61471;SDS011;47337;54.068;12.114;2023-07-29T05:21:01;5.25;;;4.55;;
61471;SDS011;47337;54.068;12.114;2023-07-29T05:23:26;6.55;;;4.97;;
61471;SDS011;47337;54.068;12.114;2023-07-29T05:25:54;5.20;;;4.70;;
61471;SDS011;47337;54.068;12.114;2023-07-29T05:28:22;5.22;;;4.22;;
61471;SDS011;47337;54.068;12.114;2023-07-29T05:30:47;6.57;;;5.13;;
61471;SDS011;47337;54.068;12.114;2023-07-29T05:33:16;6.18;;;4.53;;
61471;SDS011;47337;54.068;12.114;2023-07-29T05:35:43;6.55;;;4.93;;
61471;SDS011;47337;54.068;12.114;2023-07-29T05:38:09;6.38;;;5.35;;
61471;SDS011;47337;54.068;12.114;2023-07-29T05:40:36;7.40;;;4.72;;
61471;SDS011;47337;54.068;12.114;2023-07-29T05:43:02;6.28;;;5.18;;
61471;SDS011;47337;54.068;12.114;2023-07-29T05:45:28;5.18;;;4.68;;
61471;SDS011;47337;54.068;12.114;2023-07-29T05:47:55;5.57;;;4.93;;
61471;SDS011;47337;54.068;12.114;2023-07-29T05:50:21;5.13;;;4.60;;
61471;SDS011;47337;54.068;12.114;2023-07-29T05:52:49;4.72;;;4.32;;
61471;SDS011;47337;54.068;12.114;2023-07-29T05:55:14;6.22;;;4.70;;
61471;SDS011;47337;54.068;12.114;2023-07-29T05:57:39;6.55;;;4.60;;
61471;SDS011;47337;54.068;12.114;2023-07-29T06:00:05;4.88;;;4.38;;
61471;SDS011;47337;54.068;12.114;2023-07-29T06:02:33;6.13;;;5.35;;
61471;SDS011;47337;54.068;12.114;2023-07-29T06:04:59;5.97;;;4.75;;
61471;SDS011;47337;54.068;12.114;2023-07-29T06:07:28;6.05;;;4.03;;
61471;SDS011;47337;54.068;12.114;2023-07-29T06:09:55;4.80;;;4.40;;
61471;SDS011;47337;54.068;12.114;2023-07-29T06:12:23;6.63;;;4.50;;
61471;SDS011;47337;54.068;12.114;2023-07-29T06:14:48;5.50;;;4.97;;
61471;SDS011;47337;54.068;12.114;2023-07-29T06:17:14;6.32;;;4.78;;
61471;SDS011;47337;54.068;12.114;2023-07-29T06:19:39;5.03;;;4.25;;
61471;SDS011;47337;54.068;12.114;2023-07-29T06:22:07;4.85;;;4.40;;
61471;SDS011;47337;54.068;12.114;2023-07-29T06:24:37;5.20;;;4.47;;
61471;SDS011;47337;54.068;12.114;2023-07-29T06:27:03;4.82;;;4.35;;
61471;SDS011;47337;54.068;12.114;2023-07-29T06:29:28;5.22;;;4.65;;
61471;SDS011;47337;54.068;12.114;2023-07-29T06:31:53;6.05;;;4.53;;
61471;SDS011;47337;54.068;12.114;2023-07-29T06:34:20;16.00;;;5.78;;
61471;SDS011;47337;54.068;12.114;2023-07-29T06:36:47;4.53;;;4.13;;
61471;SDS011;47337;54.068;12.114;2023-07-29T06:39:15;5.10;;;4.10;;
61471;SDS011;47337;54.068;12.114;2023-07-29T06:41:40;8.13;;;5.22;;
61471;SDS011;47337;54.068;12.114;2023-07-29T06:44:08;5.20;;;3.90;;
61471;SDS011;47337;54.068;12.114;2023-07-29T06:46:34;6.72;;;3.70;;
61471;SDS011;47337;54.068;12.114;2023-07-29T06:49:04;3.55;;;3.03;;
61471;SDS011;47337;54.068;12.114;2023-07-29T06:51:30;3.75;;;3.20;;
61471;SDS011;47337;54.068;12.114;2023-07-29T06:53:59;3.88;;;2.88;;
61471;SDS011;47337;54.068;12.114;2023-07-29T06:56:24;3.97;;;2.97;;
61471;SDS011;47337;54.068;12.114;2023-07-29T06:58:50;4.13;;;3.22;;
61471;SDS011;47337;54.068;12.114;2023-07-29T07:01:15;3.75;;;3.03;;
61471;SDS011;47337;54.068;12.114;2023-07-29T07:03:40;5.05;;;3.33;;
61471;SDS011;47337;54.068;12.114;2023-07-29T07:06:11;4.75;;;3.15;;
61471;SDS011;47337;54.068;12.114;2023-07-29T07:08:37;6.05;;;3.10;;
61471;SDS011;47337;54.068;12.114;2023-07-29T07:11:02;3.53;;;3.22;;
61471;SDS011;47337;54.068;12.114;2023-07-29T07:13:28;4.57;;;3.60;;
61471;SDS011;47337;54.068;12.114;2023-07-29T07:15:56;5.53;;;3.67;;
61471;SDS011;47337;54.068;12.114;2023-07-29T07:18:22;3.63;;;3.22;;
61471;SDS011;47337;54.068;12.114;2023-07-29T07:20:50;3.63;;;3.25;;
61471;SDS011;47337;54.068;12.114;2023-07-29T07:23:17;3.90;;;3.50;;
61471;SDS011;47337;54.068;12.114;2023-07-29T07:25:43;4.13;;;3.50;;
61471;SDS011;47337;54.068;12.114;2023-07-29T07:28:09;5.82;;;3.75;;
61471;SDS011;47337;54.068;12.114;2023-07-29T07:30:40;3.50;;;3.00;;
61471;SDS011;47337;54.068;12.114;2023-07-29T07:33:09;4.05;;;3.65;;
61471;SDS011;47337;54.068;12.114;2023-07-29T07:35:37;6.03;;;4.07;;
61471;SDS011;47337;54.068;12.114;2023-07-29T07:38:02;6.93;;;4.78;;
61471;SDS011;47337;54.068;12.114;2023-07-29T07:40:30;5.88;;;4.63;;
61471;SDS011;47337;54.068;12.114;2023-07-29T07:43:02;4.50;;;4.10;;
61471;SDS011;47337;54.068;12.114;2023-07-29T07:45:31;6.32;;;4.78;;
61471;SDS011;47337;54.068;12.114;2023-07-29T07:48:02;5.47;;;4.20;;
61471;SDS011;47337;54.068;12.114;2023-07-29T07:50:32;4.78;;;4.30;;
61471;SDS011;47337;54.068;12.114;2023-07-29T07:52:57;5.60;;;4.32;;
61471;SDS011;47337;54.068;12.114;2023-07-29T07:55:22;4.35;;;3.95;;
61471;SDS011;47337;54.068;12.114;2023-07-29T07:57:48;17.27;;;4.13;;
61471;SDS011;47337;54.068;12.114;2023-07-29T08:00:17;6.97;;;4.22;;
61471;SDS011;47337;54.068;12.114;2023-07-29T08:02:44;6.35;;;4.28;;
61471;SDS011;47337;54.068;12.114;2023-07-29T08:05:12;5.13;;;4.43;;
61471;SDS011;47337;54.068;12.114;2023-07-29T08:07:37;4.75;;;3.92;;
61471;SDS011;47337;54.068;12.114;2023-07-29T08:10:03;5.35;;;4.65;;
61471;SDS011;47337;54.068;12.114;2023-07-29T08:12:31;5.45;;;4.20;;
61471;SDS011;47337;54.068;12.114;2023-07-29T08:14:57;5.57;;;4.68;;
61471;SDS011;47337;54.068;12.114;2023-07-29T08:17:22;5.85;;;5.28;;
61471;SDS011;47337;54.068;12.114;2023-07-29T08:19:51;5.53;;;4.88;;
61471;SDS011;47337;54.068;12.114;2023-07-29T08:22:19;6.38;;;5.10;;
61471;SDS011;47337;54.068;12.114;2023-07-29T08:24:47;5.85;;;4.72;;
61471;SDS011;47337;54.068;12.114;2023-07-29T08:27:13;5.43;;;4.90;;
61471;SDS011;47337;54.068;12.114;2023-07-29T08:29:40;5.28;;;4.72;;
61471;SDS011;47337;54.068;12.114;2023-07-29T08:32:06;5.85;;;5.00;;
61471;SDS011;47337;54.068;12.114;2023-07-29T08:34:32;5.53;;;5.03;;
61471;SDS011;47337;54.068;12.114;2023-07-29T08:37:00;6.82;;;5.20;;
61471;SDS011;47337;54.068;12.114;2023-07-29T08:39:27;7.43;;;5.50;;
61471;SDS011;47337;54.068;12.114;2023-07-29T08:41:57;6.40;;;5.25;;
61471;SDS011;47337;54.068;12.114;2023-07-29T08:44:30;6.63;;;5.40;;
61471;SDS011;47337;54.068;12.114;2023-07-29T08:47:00;7.07;;;6.38;;
61471;SDS011;47337;54.068;12.114;2023-07-29T08:49:26;7.05;;;6.15;;
61471;SDS011;47337;54.068;12.114;2023-07-29T08:51:53;7.43;;;5.97;;
61471;SDS011;47337;54.068;12.114;2023-07-29T08:54:19;9.75;;;6.68;;
61471;SDS011;47337;54.068;12.114;2023-07-29T08:56:45;9.88;;;6.55;;
61471;SDS011;47337;54.068;12.114;2023-07-29T08:59:11;7.53;;;5.57;;
61471;SDS011;47337;54.068;12.114;2023-07-29T09:01:38;6.80;;;6.20;;
61471;SDS011;47337;54.068;12.114;2023-07-29T09:04:06;6.00;;;5.40;;
61471;SDS011;47337;54.068;12.114;2023-07-29T09:06:33;6.78;;;6.18;;
61471;SDS011;47337;54.068;12.114;2023-07-29T09:09:01;6.93;;;5.18;;
61471;SDS011;47337;54.068;12.114;2023-07-29T09:11:27;6.32;;;5.63;;
61471;SDS011;47337;54.068;12.114;2023-07-29T09:13:58;7.68;;;5.82;;
61471;SDS011;47337;54.068;12.114;2023-07-29T09:16:24;6.07;;;5.38;;
61471;SDS011;47337;54.068;12.114;2023-07-29T09:18:50;6.65;;;5.97;;
61471;SDS011;47337;54.068;12.114;2023-07-29T09:21:23;8.40;;;5.40;;
61471;SDS011;47337;54.068;12.114;2023-07-29T09:23:53;5.90;;;5.10;;
61471;SDS011;47337;54.068;12.114;2023-07-29T09:26:26;6.57;;;5.50;;
61471;SDS011;47337;54.068;12.114;2023-07-29T09:28:57;6.18;;;5.50;;
61471;SDS011;47337;54.068;12.114;2023-07-29T09:31:25;5.50;;;5.00;;
61471;SDS011;47337;54.068;12.114;2023-07-29T09:34:00;4.55;;;4.15;;
61471;SDS011;47337;54.068;12.114;2023-07-29T09:36:29;5.30;;;4.80;;
61471;SDS011;47337;54.068;12.114;2023-07-29T09:38:56;6.35;;;5.30;;
61471;SDS011;47337;54.068;12.114;2023-07-29T09:41:22;5.22;;;4.72;;
61471;SDS011;47337;54.068;12.114;2023-07-29T09:43:51;5.72;;;5.07;;
61471;SDS011;47337;54.068;12.114;2023-07-29T09:46:22;5.10;;;4.53;;
61471;SDS011;47337;54.068;12.114;2023-07-29T09:48:48;5.95;;;5.00;;
61471;SDS011;47337;54.068;12.114;2023-07-29T09:51:15;5.57;;;5.03;;
61471;SDS011;47337;54.068;12.114;2023-07-29T09:53:42;5.57;;;5.03;;
61471;SDS011;47337;54.068;12.114;2023-07-29T09:56:08;4.80;;;4.38;;
61471;SDS011;47337;54.068;12.114;2023-07-29T09:58:38;6.65;;;4.25;;
61471;SDS011;47337;54.068;12.114;2023-07-29T10:01:07;4.93;;;4.20;;
61471;SDS011;47337;54.068;12.114;2023-07-29T10:03:33;5.18;;;3.70;;
61471;SDS011;47337;54.068;12.114;2023-07-29T10:06:03;4.25;;;3.95;;
61471;SDS011;47337;54.068;12.114;2023-07-29T10:08:31;5.18;;;3.90;;
61471;SDS011;47337;54.068;12.114;2023-07-29T10:11:01;4.30;;;3.88;;
61471;SDS011;47337;54.068;12.114;2023-07-29T10:13:27;4.47;;;4.05;;
61471;SDS011;47337;54.068;12.114;2023-07-29T10:15:53;5.47;;;4.25;;
61471;SDS011;47337;54.068;12.114;2023-07-29T10:18:19;11.10;;;6.63;;
61471;SDS011;47337;54.068;12.114;2023-07-29T10:20:47;4.30;;;3.80;;
61471;SDS011;47337;54.068;12.114;2023-07-29T10:23:17;7.85;;;6.18;;
61471;SDS011;47337;54.068;12.114;2023-07-29T10:25:46;4.25;;;3.85;;
61471;SDS011;47337;54.068;12.114;2023-07-29T10:28:16;11.55;;;6.40;;
61471;SDS011;47337;54.068;12.114;2023-07-29T10:30:46;14.77;;;11.13;;
61471;SDS011;47337;54.068;12.114;2023-07-29T10:33:11;6.47;;;3.85;;
61471;SDS011;47337;54.068;12.114;2023-07-29T10:35:39;4.32;;;3.92;;
61471;SDS011;47337;54.068;12.114;2023-07-29T10:38:10;5.22;;;4.30;;
61471;SDS011;47337;54.068;12.114;2023-07-29T10:40:46;5.97;;;4.53;;
61471;SDS011;47337;54.068;12.114;2023-07-29T10:43:24;5.00;;;4.10;;
61471;SDS011;47337;54.068;12.114;2023-07-29T10:45:50;4.72;;;3.47;;
61471;SDS011;47337;54.068;12.114;2023-07-29T10:53:58;4.53;;;3.75;;
61471;SDS011;47337;54.068;12.114;2023-07-29T10:56:34;4.00;;;3.70;;
61471;SDS011;47337;54.068;12.114;2023-07-29T11:01:42;7.82;;;5.07;;
61471;SDS011;47337;54.068;12.114;2023-07-29T11:09:39;3.60;;;3.30;;
61471;SDS011;47337;54.068;12.114;2023-07-29T11:12:05;3.80;;;3.42;;
61471;SDS011;47337;54.068;12.114;2023-07-29T11:14:51;3.33;;;3.03;;
61471;SDS011;47337;54.068;12.114;2023-07-29T11:17:17;3.85;;;3.28;;
61471;SDS011;47337;54.068;12.114;2023-07-29T11:19:50;3.47;;;3.17;;
61471;SDS011;47337;54.068;12.114;2023-07-29T11:22:16;4.05;;;3.08;;
61471;SDS011;47337;54.068;12.114;2023-07-29T11:24:44;2.80;;;2.60;;
61471;SDS011;47337;54.068;12.114;2023-07-29T11:27:12;3.40;;;3.10;;
61471;SDS011;47337;54.068;12.114;2023-07-29T11:29:38;3.95;;;3.20;;
61471;SDS011;47337;54.068;12.114;2023-07-29T11:32:03;3.63;;;3.10;;
61471;SDS011;47337;54.068;12.114;2023-07-29T11:34:34;5.80;;;3.35;;
61471;SDS011;47337;54.068;12.114;2023-07-29T11:37:02;3.50;;;3.20;;
61471;SDS011;47337;54.068;12.114;2023-07-29T11:39:31;4.13;;;2.97;;
61471;SDS011;47337;54.068;12.114;2023-07-29T11:41:57;3.65;;;3.28;;
61471;SDS011;47337;54.068;12.114;2023-07-29T11:44:25;3.75;;;3.03;;
61471;SDS011;47337;54.068;12.114;2023-07-29T11:46:50;3.65;;;3.08;;
61471;SDS011;47337;54.068;12.114;2023-07-29T11:49:16;3.40;;;3.10;;
61471;SDS011;47337;54.068;12.114;2023-07-29T11:51:41;3.15;;;2.95;;
61471;SDS011;47337;54.068;12.114;2023-07-29T11:54:08;3.45;;;3.15;;
61471;SDS011;47337;54.068;12.114;2023-07-29T11:56:34;4.18;;;3.58;;
61471;SDS011;47337;54.068;12.114;2023-07-29T11:59:00;4.10;;;3.70;;
61471;SDS011;47337;54.068;12.114;2023-07-29T12:01:28;3.25;;;2.78;;
61471;SDS011;47337;54.068;12.114;2023-07-29T12:03:56;5.07;;;2.03;;
61471;SDS011;47337;54.068;12.114;2023-07-29T12:06:22;8.30;;;2.75;;
61471;SDS011;47337;54.068;12.114;2023-07-29T12:08:56;5.35;;;3.28;;
61471;SDS011;47337;54.068;12.114;2023-07-29T12:11:24;5.25;;;2.70;;
61471;SDS011;47337;54.068;12.114;2023-07-29T12:13:50;4.45;;;3.10;;
61471;SDS011;47337;54.068;12.114;2023-07-29T12:16:18;6.13;;;3.05;;
61471;SDS011;47337;54.068;12.114;2023-07-29T12:18:44;8.65;;;3.33;;
61471;SDS011;47337;54.068;12.114;2023-07-29T12:21:09;8.68;;;3.47;;
61471;SDS011;47337;54.068;12.114;2023-07-29T12:23:38;6.15;;;3.80;;
61471;SDS011;47337;54.068;12.114;2023-07-29T12:26:08;6.63;;;3.55;;
61471;SDS011;47337;54.068;12.114;2023-07-29T12:28:33;3.97;;;3.25;;
61471;SDS011;47337;54.068;12.114;2023-07-29T12:30:58;5.78;;;3.63;;
61471;SDS011;47337;54.068;12.114;2023-07-29T12:33:34;4.40;;;3.38;;
61471;SDS011;47337;54.068;12.114;2023-07-29T12:36:04;8.27;;;3.90;;
61471;SDS011;47337;54.068;12.114;2023-07-29T12:38:30;13.35;;;4.03;;
61471;SDS011;47337;54.068;12.114;2023-07-29T12:40:56;8.38;;;3.78;;
61471;SDS011;47337;54.068;12.114;2023-07-29T12:43:21;8.70;;;3.90;;
61471;SDS011;47337;54.068;12.114;2023-07-29T12:45:50;5.50;;;3.78;;
61471;SDS011;47337;54.068;12.114;2023-07-29T12:48:19;4.25;;;3.70;;
61471;SDS011;47337;54.068;12.114;2023-07-29T12:50:44;4.13;;;3.58;;
61471;SDS011;47337;54.068;12.114;2023-07-29T12:53:10;5.30;;;3.38;;
61471;SDS011;47337;54.068;12.114;2023-07-29T12:55:38;4.75;;;3.38;;
61471;SDS011;47337;54.068;12.114;2023-07-29T12:58:05;4.90;;;3.20;;
61471;SDS011;47337;54.068;12.114;2023-07-29T13:00:33;6.32;;;4.03;;
61471;SDS011;47337;54.068;12.114;2023-07-29T13:02:58;4.28;;;3.78;;
61471;SDS011;47337;54.068;12.114;2023-07-29T13:05:24;5.97;;;3.70;;
61471;SDS011;47337;54.068;12.114;2023-07-29T13:07:52;5.65;;;4.20;;
61471;SDS011;47337;54.068;12.114;2023-07-29T13:10:17;5.25;;;3.83;;
61471;SDS011;47337;54.068;12.114;2023-07-29T13:12:45;5.60;;;3.72;;
61471;SDS011;47337;54.068;12.114;2023-07-29T13:15:13;5.97;;;4.05;;
61471;SDS011;47337;54.068;12.114;2023-07-29T13:17:38;4.82;;;3.55;;
61471;SDS011;47337;54.068;12.114;2023-07-29T13:20:04;5.65;;;3.08;;
61471;SDS011;47337;54.068;12.114;2023-07-29T13:22:33;4.82;;;3.60;;
61471;SDS011;47337;54.068;12.114;2023-07-29T13:24:58;6.47;;;3.50;;
61471;SDS011;47337;54.068;12.114;2023-07-29T13:27:28;4.72;;;3.08;;
61471;SDS011;47337;54.068;12.114;2023-07-29T13:29:53;7.40;;;3.05;;
61471;SDS011;47337;54.068;12.114;2023-07-29T13:32:19;3.42;;;2.72;;
61471;SDS011;47337;54.068;12.114;2023-07-29T13:34:44;4.75;;;3.30;;
61471;SDS011;47337;54.068;12.114;2023-07-29T13:37:09;4.85;;;2.72;;
61471;SDS011;47337;54.068;12.114;2023-07-29T13:39:35;4.53;;;2.47;;
61471;SDS011;47337;54.068;12.114;2023-07-29T13:42:00;4.45;;;2.78;;
61471;SDS011;47337;54.068;12.114;2023-07-29T13:44:28;3.38;;;2.40;;
61471;SDS011;47337;54.068;12.114;2023-07-29T13:46:53;3.40;;;2.47;;
61471;SDS011;47337;54.068;12.114;2023-07-29T13:49:21;3.20;;;2.58;;
61471;SDS011;47337;54.068;12.114;2023-07-29T13:51:46;4.90;;;2.50;;
61471;SDS011;47337;54.068;12.114;2023-07-29T13:54:12;3.90;;;2.63;;
61471;SDS011;47337;54.068;12.114;2023-07-29T13:56:37;4.88;;;3.17;;
61471;SDS011;47337;54.068;12.114;2023-07-29T13:59:03;3.58;;;3.25;;
61471;SDS011;47337;54.068;12.114;2023-07-29T14:01:30;4.38;;;3.80;;
61471;SDS011;47337;54.068;12.114;2023-07-29T14:03:56;3.70;;;3.20;;
61471;SDS011;47337;54.068;12.114;2023-07-29T14:06:21;4.43;;;4.03;;
61471;SDS011;47337;54.068;12.114;2023-07-29T14:08:46;4.43;;;4.03;;
61471;SDS011;47337;54.068;12.114;2023-07-29T14:11:14;5.20;;;3.88;;
61471;SDS011;47337;54.068;12.114;2023-07-29T14:13:47;4.47;;;4.05;;
61471;SDS011;47337;54.068;12.114;2023-07-29T14:16:12;3.85;;;3.45;;
61471;SDS011;47337;54.068;12.114;2023-07-29T14:18:37;4.18;;;3.78;;
61471;SDS011;47337;54.068;12.114;2023-07-29T14:21:03;4.85;;;3.83;;
61471;SDS011;47337;54.068;12.114;2023-07-29T14:23:28;4.10;;;3.67;;
61471;SDS011;47337;54.068;12.114;2023-07-29T14:25:57;3.85;;;3.55;;
61471;SDS011;47337;54.068;12.114;2023-07-29T14:28:23;4.40;;;3.70;;
61471;SDS011;47337;54.068;12.114;2023-07-29T14:30:48;4.20;;;3.40;;
61471;SDS011;47337;54.068;12.114;2023-07-29T14:33:13;3.80;;;3.40;;
61471;SDS011;47337;54.068;12.114;2023-07-29T14:35:39;4.03;;;3.63;;
61471;SDS011;47337;54.068;12.114;2023-07-29T14:38:05;4.35;;;3.38;;
61471;SDS011;47337;54.068;12.114;2023-07-29T14:40:32;3.85;;;3.00;;
61471;SDS011;47337;54.068;12.114;2023-07-29T14:42:58;3.70;;;3.40;;
61471;SDS011;47337;54.068;12.114;2023-07-29T14:45:23;4.35;;;3.25;;
61471;SDS011;47337;54.068;12.114;2023-07-29T14:47:49;4.07;;;3.30;;
61471;SDS011;47337;54.068;12.114;2023-07-29T14:50:16;4.40;;;3.28;;